createdAt,value
2018-03-29T07:20:18.990Z,3.87
2018-03-29T07:25:22.235Z,4.80
2018-03-29T07:30:25.445Z,4.23
2018-03-29T07:35:28.655Z,3.80
2018-03-29T07:40:32.052Z,4.70
2018-03-29T07:45:35.298Z,3.00
2018-03-29T07:50:38.614Z,4.40
2018-03-29T07:55:42.432Z,4.83
2018-03-29T08:00:46.128Z,3.90
2018-03-29T08:05:49.990Z,4.87
2018-03-29T08:10:53.313Z,5.60
2018-03-29T08:15:56.576Z,5.90
2018-03-29T08:21:00.186Z,4.70
2018-03-29T08:26:03.893Z,3.80
2018-03-29T08:31:07.517Z,4.60
2018-03-29T08:36:11.127Z,3.87
2018-03-29T08:41:14.430Z,6.03
2018-03-29T08:46:17.739Z,4.93
2018-03-29T08:51:21.057Z,5.00
2018-03-29T08:56:24.748Z,6.33
2018-03-29T09:01:27.969Z,6.57
2018-03-29T09:06:31.321Z,6.40
2018-03-29T09:11:34.789Z,12.33
2018-03-29T09:16:38.002Z,5.00
2018-03-29T09:21:41.724Z,5.70
2018-03-29T09:26:45.348Z,5.23
2018-03-29T09:31:48.957Z,6.30
2018-03-29T09:36:52.584Z,5.00
2018-03-29T09:41:55.803Z,6.90
2018-03-29T09:46:59.128Z,8.80
2018-03-29T09:52:02.436Z,7.43
2018-03-29T09:57:05.646Z,5.13
2018-03-29T10:02:14.658Z,5.77
2018-03-29T10:07:23.638Z,13.07
2018-03-29T10:12:26.994Z,6.33
2018-03-29T10:17:30.230Z,5.13
2018-03-29T10:22:33.560Z,4.97
2018-03-29T10:27:36.843Z,3.97
2018-03-29T10:32:40.057Z,3.97
2018-03-29T10:37:44.652Z,5.23
2018-03-29T10:42:48.556Z,3.97
2018-03-29T10:47:51.780Z,6.40
2018-03-29T10:52:55.393Z,4.77
2018-03-29T10:57:59.054Z,4.30
2018-03-29T11:03:02.290Z,4.13
2018-03-29T11:08:05.515Z,4.40
2018-03-29T11:13:09.129Z,4.83
2018-03-29T11:18:12.751Z,4.40
2018-03-29T11:23:16.432Z,4.57
2018-03-29T11:28:20.241Z,4.50
2018-03-29T11:33:23.549Z,4.43
2018-03-29T11:38:26.911Z,3.37
2018-03-29T11:43:30.130Z,3.97
2018-03-29T11:48:33.352Z,3.40
2018-03-29T11:53:36.686Z,3.10
2018-03-29T11:58:40.111Z,3.63
2018-03-29T12:03:43.724Z,4.97
2018-03-29T12:08:47.134Z,4.50
2018-03-29T12:13:50.516Z,3.67
2018-03-29T12:18:53.728Z,2.55
2018-03-29T12:23:56.978Z,5.43
2018-03-29T12:29:00.593Z,2.27
2018-03-29T12:34:03.862Z,2.33
2018-03-29T12:39:08.085Z,2.60
2018-03-29T12:44:11.516Z,2.30
2018-03-29T12:49:14.799Z,3.60
2018-03-29T12:54:18.051Z,4.93
2018-03-29T13:00:03.130Z,2.33
2018-03-29T13:05:06.840Z,2.90
2018-03-29T13:10:10.700Z,3.00
2018-03-29T13:15:13.930Z,2.47
2018-03-29T13:20:17.325Z,3.30
2018-03-29T13:25:20.570Z,2.63
2018-03-29T13:30:23.866Z,3.53
2018-03-29T13:35:27.098Z,1.80
2018-03-29T13:40:30.414Z,2.10
2018-03-29T13:45:33.642Z,2.37
2018-03-29T13:50:36.875Z,1.17
2018-03-29T13:55:40.225Z,2.03
2018-03-29T14:00:43.938Z,1.37
2018-03-29T14:05:47.617Z,3.17
2018-03-29T14:10:50.932Z,2.30
2018-03-29T14:15:54.307Z,4.20
2018-03-29T14:20:57.671Z,3.13
2018-03-29T14:26:00.992Z,3.50
2018-03-29T14:31:04.640Z,4.07
2018-03-29T14:36:07.855Z,3.73
2018-03-29T14:41:11.105Z,3.50
2018-03-29T14:46:14.821Z,4.50
2018-03-29T14:51:18.515Z,5.03
2018-03-29T14:56:21.854Z,2.97
2018-03-29T15:01:25.531Z,3.57
2018-03-29T15:06:28.752Z,13.63
2018-03-29T15:15:43.132Z,3.80
2018-03-29T15:20:46.466Z,4.87
2018-03-29T15:25:49.681Z,3.20
2018-03-29T15:30:53.386Z,3.10
2018-03-29T15:35:56.599Z,4.30
2018-03-29T15:40:59.876Z,3.00
2018-03-29T15:46:03.875Z,3.57
2018-03-29T15:51:07.127Z,4.13
2018-03-29T15:56:10.362Z,4.40
2018-03-29T16:01:13.716Z,5.60
2018-03-29T16:06:17.329Z,6.70
2018-03-29T16:11:20.549Z,4.27
2018-03-29T16:16:24.894Z,4.93
2018-03-29T16:21:28.174Z,7.37
2018-03-29T16:26:31.435Z,4.17
2018-03-29T16:31:34.819Z,4.97
2018-03-29T16:36:38.035Z,1.93
2018-03-29T16:41:41.646Z,2.23
2018-03-29T16:46:45.292Z,2.67
2018-03-29T16:51:48.696Z,3.13
2018-03-29T16:56:52.375Z,2.70
2018-03-29T17:01:56.109Z,2.50
2018-03-29T17:06:59.782Z,3.20
2018-03-29T17:12:03.030Z,2.53
2018-03-29T17:17:06.670Z,2.40
2018-03-29T17:22:09.909Z,3.67
2018-03-29T17:27:13.128Z,6.43
2018-03-29T17:32:16.413Z,2.93
2018-03-29T17:37:19.728Z,2.83
2018-03-29T17:42:22.954Z,1.93
2018-03-29T17:47:26.371Z,3.10
2018-03-29T17:52:29.601Z,3.90
2018-03-29T17:57:33.265Z,3.27
2018-03-29T18:02:37.015Z,3.67
2018-03-29T18:07:40.332Z,4.03
2018-03-29T18:12:44.261Z,5.23
2018-03-29T18:17:47.638Z,4.23
2018-03-29T18:22:50.979Z,3.53
2018-03-29T18:27:54.793Z,2.67
2018-03-29T18:32:59.088Z,2.37
2018-03-29T18:38:02.439Z,2.70
2018-03-29T18:43:06.153Z,3.07
2018-03-29T18:48:09.833Z,3.80
2018-03-29T18:53:13.261Z,4.73
2018-03-29T18:58:16.883Z,5.47
2018-03-29T19:03:20.591Z,3.90
2018-03-29T19:08:24.012Z,4.70
2018-03-29T19:13:27.236Z,4.23
2018-03-29T19:18:30.696Z,4.20
2018-03-29T19:23:33.947Z,4.73
2018-03-29T19:28:37.176Z,4.67
2018-03-29T19:33:40.448Z,4.47
2018-03-29T19:38:51.124Z,3.67
2018-03-29T19:43:55.520Z,3.90
2018-03-29T19:48:58.831Z,3.80
2018-03-29T19:54:02.073Z,5.37
2018-03-29T19:59:05.703Z,3.90
2018-03-29T20:04:09.099Z,4.30
2018-03-29T20:09:12.775Z,6.03
2018-03-29T20:14:15.990Z,3.30
2018-03-29T20:19:19.563Z,3.97
2018-03-29T20:24:23.234Z,4.27
2018-03-29T20:29:26.542Z,3.37
2018-03-29T20:34:29.809Z,3.37
2018-03-29T20:39:33.134Z,4.97
2018-03-29T20:44:36.340Z,3.93
2018-03-29T20:49:39.552Z,4.13
2018-03-29T20:54:42.772Z,4.97
2018-03-29T20:59:46.073Z,5.47
2018-03-29T21:04:49.903Z,6.73
2018-03-29T21:09:53.416Z,6.80
2018-03-29T21:14:57.701Z,6.67
2018-03-29T21:20:00.917Z,6.43
2018-03-29T21:25:04.256Z,6.57
2018-03-29T21:30:07.552Z,6.27
2018-03-29T21:35:10.984Z,4.83
2018-03-29T21:40:14.606Z,4.17
2018-03-29T21:45:18.212Z,7.00
2018-03-29T21:50:21.912Z,6.43
2018-03-29T21:55:25.136Z,6.50
2018-03-29T22:00:32.983Z,5.83
2018-03-29T22:05:36.257Z,7.57
2018-03-29T22:10:40.820Z,5.20
2018-03-29T22:15:44.199Z,6.10
2018-03-29T22:20:47.868Z,7.33
2018-03-29T22:25:51.068Z,7.57
2018-03-29T22:30:54.271Z,7.23
2018-03-29T22:35:57.611Z,7.47
2018-03-29T22:41:01.080Z,9.03
2018-03-29T22:46:04.323Z,9.13
2018-03-29T22:51:07.738Z,9.33
2018-03-29T22:56:12.289Z,9.90
2018-03-29T23:01:15.517Z,9.20
2018-03-29T23:06:18.794Z,7.00
2018-03-29T23:11:22.532Z,10.77
2018-03-29T23:16:25.823Z,9.80
2018-03-29T23:21:29.076Z,10.63
2018-03-29T23:26:39.420Z,9.83
2018-03-29T23:31:42.641Z,10.20
2018-03-29T23:36:45.856Z,9.93
2018-03-29T23:41:49.221Z,10.03
2018-03-29T23:46:52.490Z,8.83
2018-03-29T23:51:55.716Z,10.17
2018-03-29T23:56:58.958Z,12.40
